METAR Formatted Surface Weather Observation
Issued by NWS

Home | Current Version | Previous Version | Text Only | Print | Product List | Glossary On
Versions: 1 2 3 4
000
SAUS45 KFGZ 111357
MTRRQE
METAR KRQE 111353Z AUTO 00000KT 10SM CLR 17/11 A3031 RMK AO2 SLP143
T01670111 TSNO



USA.gov is the U.S. government's official web portal to all federal, state and local government web resources and services.